Livermore, CA

10:44 AM PDT on October 01, 2014 (GMT -0700)
KCALIVER27 | Change Station
CLOSE
Current Station
Personal Weather Station
Location: Livermore, CA
Elevation: 571 ft
Nearby Weather Stations
Active Advisory: Heat Advisory

Elev 571 ft 37.67 °N, 121.74 °W | Updated 2 seconds ago

Clear
Clear
73.1 °F
Feels Like 77 °F
N
0.0
Wind Variable Wind from North
Gusts 0.0 mph

Today
High -- | Low -- °F
--% Chance of Precip.
Yesterday
High -- | Low -- °F
Precip. -- in
7:02 AM 6:49 PM
Waxing Crescent, 49% visible
Pressure 29.95 in
Visibility 10.0 miles
Clouds Scattered Clouds 1400 ft
Heat Index 77 °F
Dew Point 42 °F
Humidity 33%
Rainfall 0.00 in
Snow Depth 0 in , 1 in , 0 in
UV 4 out of 12
Pollen 3.60 out of 12
Ozone Good
PM2.5 Good
Flu Activity Not available.
METAR KLVK 301809Z 30006KT 10SM SCT014 19/14 A2995 RMK AO2

More Conditions Fewer Conditions

Pressure 29.95 in
Visibility 10.0 miles
Clouds Scattered Clouds 1400 ft
Heat Index 77 °F
Dew Point 42 °F
Humidity 33%
Rainfall 0.00 in
Snow Depth 0 in , 1 in , 0 in
UV 4 out of 12
Pollen 3.60 out of 12
Ozone Good
PM2.5 Good
Flu Activity Not available.
METAR KLVK 301809Z 30006KT 10SM SCT014 19/14 A2995 RMK AO2

More Conditions Fewer Conditions

10-Day Weather Forecast

Almanac

Astronomy

Oct. 01, 2014 Rise Set
Actual Time 7:02 AM PDT 6:49 PM PDT
Civil Twilight 6:36 AM PDT 7:16 PM PDT
Nautical Twilight 6:06 AM PDT 7:46 PM PDT
Astronomical Twilight 5:35 AM PDT 8:16 PM PDT
Moon 2:03 PM PDT No Moon Set
Length of Visible Light 12h 39m
Length of Day
11h 47m
Tomorrow will be 2m 24s shorter.
Waxing Crescent, 49% of the Moon is Illuminated
Today
Waxing Crescent
Oct 1
First Quarter
Oct 8
Full
Oct 15
Last Quarter
Oct 23
New

Today's Extremes

State Highs State Lows

Community

WunderPhotos

Upload Photos

1,758,001 photos uploaded!

WunderBlogs® & News

By Dr. Jeff Masters
Director of Meteorology, Weather Underground
By Kari Strenfel
Meteorologist, Weather Underground
By Christopher C. Burt
Weather Historian, Weather Underground
October 1, 2014
October 1, 2014
October 1, 2014

Nearby

Air Quality

  Air Quality AQ Index Pollutant
Yesterday Good
OZONE
Yesterday Good
PM2.5
Current Good
PM2.5
Current Good
OZONE
Wednesday Good
OZONE
Thursday Moderate
OZONE
Friday Moderate
OZONE
Saturday Moderate
OZONE
Sunday Moderate
OZONE

Snow Depth

Station Depth Elevation
Spratt Creek 0 in 6200 ft
Rubicon #2 1 in 7500 ft
Leavitt Lake 0 in 9400 ft
Independence Lake 0 in 8450 ft
CSS Lab 2 in 6900 ft

Earthquake Activity

City Distance Mag. Time & Date
Shandon, California 152 miles 2.9 5:34 PM PDT
2014-09-30
East Foothills, California 13 miles 2.6 3:34 PM PDT
2014-09-30
South Dos Palos, California 87 miles 2.7 3:08 PM PDT
2014-09-30
South Dos Palos, California 87 miles 2.5 9:18 PM PDT
2014-09-29
Minimum magnitude displayed is 2.5.

Coastal Water Temperatures

Place Temperature
No Stations Reporting

Nearby Weather Stations